Time;durP1;ratioP1;P1;durP2;ratioP2;P2;SDS_P1;SDS_P2;PMS_P1;PMS_P2;Temp;Humidity;BMP_temperature;BMP_pressure;BME280_temperature;BME280_humidity;BME280_pressure;Samples;Min_cycle;Max_cycle;Signal;HPM_P1;HPM_P2
2022/08/15 00:01:16;;;;;;;5.93;5.22;;;22.10;58.90;;;21.33;64.76;95072.22;4949064;28;20036;-65
2022/08/15 00:03:46;;;;;;;7.47;5.00;;;22.10;59.20;;;21.31;64.74;95069.03;4964686;28;20138;-65
2022/08/15 00:06:16;;;;;;;7.55;5.47;;;22.00;59.30;;;21.27;64.80;95061.81;4949398;28;20041;-65
2022/08/15 00:08:49;;;;;;;7.27;5.53;;;22.00;59.40;;;21.28;65.18;95063.44;4915375;28;20050;-65
2022/08/15 00:11:19;;;;;;;5.82;5.22;;;22.00;59.40;;;21.27;65.69;95067.16;4934010;28;20109;-65
2022/08/15 00:13:49;;;;;;;6.40;5.80;;;22.00;59.90;;;21.27;65.10;95057.28;4949681;28;20083;-64
2022/08/15 00:16:16;;;;;;;7.35;5.57;;;22.00;59.90;;;21.26;65.26;95063.69;4948396;28;20035;-65
2022/08/15 00:18:42;;;;;;;7.82;5.85;;;22.00;60.00;;;21.24;65.48;95063.19;4953209;28;20043;-65
2022/08/15 00:21:10;;;;;;;6.30;5.70;;;22.00;60.10;;;21.21;65.41;95058.38;4949197;28;20051;-65
2022/08/15 00:23:36;;;;;;;8.13;5.88;;;22.00;60.10;;;21.17;65.24;95046.66;4947735;28;20034;-65
2022/08/15 00:26:03;;;;;;;6.65;5.60;;;22.00;60.10;;;21.19;65.57;95055.19;4965707;28;20031;-64
2022/08/15 00:28:29;;;;;;;5.93;5.18;;;21.90;60.10;;;21.17;65.68;95046.66;4931967;28;20059;-65
2022/08/15 00:30:55;;;;;;;6.65;5.30;;;21.90;60.20;;;21.16;65.21;95047.72;4933477;28;20035;-64
2022/08/15 00:33:21;;;;;;;6.70;5.63;;;21.90;60.20;;;21.16;65.74;95045.06;4917284;29;20416;-64
2022/08/15 00:35:49;;;;;;;7.50;5.25;;;21.90;60.20;;;21.14;65.68;95047.22;4949091;28;20038;-65
2022/08/15 00:38:21;;;;;;;6.95;5.43;;;21.90;60.20;;;21.14;67.00;95057.13;4947496;28;20070;-65
2022/08/15 00:43:48;;;;;;;6.15;5.28;;;21.80;60.30;;;21.07;66.59;95058.25;4959374;28;20177;-65
2022/08/15 00:46:14;;;;;;;6.13;5.15;;;21.80;60.20;;;21.06;66.08;95051.31;4964464;28;20419;-65
2022/08/15 00:48:43;;;;;;;5.82;5.20;;;21.80;60.20;;;21.05;66.11;95064.94;4918884;28;20085;-64
2022/08/15 00:51:11;;;;;;;6.13;4.93;;;21.80;60.10;;;21.06;66.53;95061.19;4950859;28;20556;-64
2022/08/15 00:53:40;;;;;;;7.38;5.35;;;21.80;60.20;;;21.04;65.39;95057.97;4963785;28;20110;-66
2022/08/15 00:56:06;;;;;;;7.10;4.78;;;21.80;59.70;;;21.03;66.03;95061.72;4935596;28;20043;-64
2022/08/15 00:58:32;;;;;;;5.30;4.75;;;21.80;59.80;;;21.03;66.16;95067.88;4947423;28;20062;-66
2022/08/15 01:00:58;;;;;;;6.82;4.80;;;21.80;60.00;;;21.03;65.92;95057.19;4964908;28;20100;-64
2022/08/15 01:03:29;;;;;;;6.13;4.72;;;21.80;59.60;;;21.03;65.81;95061.72;4948381;28;20150;-65
2022/08/15 01:05:56;;;;;;;;;;;21.80;59.00;;;21.02;65.28;95060.13;4949745;28;20407;-64
2022/08/15 01:08:24;;;;;;;5.40;4.50;;;21.80;58.60;;;21.01;64.02;95061.22;4931313;28;19926;-65
2022/08/15 01:10:52;;;;;;;5.95;4.18;;;21.80;58.20;;;21.03;64.07;95056.38;4937922;28;20039;-66
2022/08/15 01:13:17;;;;;;;5.00;4.35;;;21.80;58.00;;;21.02;63.05;95070.84;4947827;28;20126;-65
2022/08/15 01:15:43;;;;;;;9.95;4.78;;;21.80;57.10;;;21.00;63.35;95063.09;4948654;28;20187;-65
2022/08/15 01:18:09;;;;;;;4.80;4.30;;;21.70;57.00;;;20.97;63.12;95068.19;4947610;28;20510;-65
2022/08/15 01:20:35;;;;;;;5.57;4.20;;;21.70;56.50;;;20.94;62.55;95069.56;4963447;28;20028;-65
2022/08/15 01:23:31;;;;;;;5.80;4.30;;;21.60;56.20;;;20.88;61.11;95062.66;4948890;28;20054;-64
2022/08/15 01:26:02;;;;;;;7.85;4.63;;;21.60;55.90;;;20.83;61.45;95057.38;4932043;28;20035;-65
2022/08/15 01:28:35;;;;;;;4.53;4.00;;;21.60;55.90;;;20.84;61.40;95066.97;4946453;28;20126;-64
2022/08/15 01:31:05;;;;;;;5.70;3.97;;;21.60;56.20;;;20.86;61.55;95070.16;4948676;28;20039;-65
2022/08/15 01:33:36;;;;;;;7.55;4.00;;;21.60;56.70;;;20.88;62.22;95064.53;4947875;28;20035;-64
2022/08/15 01:36:01;;;;;;;5.68;3.95;;;21.70;57.30;;;20.90;62.58;95065.06;4931086;28;20032;-65
2022/08/15 01:38:58;;;;;;;4.43;3.65;;;21.70;57.20;;;20.90;63.03;95060.50;4934574;28;20039;-64
2022/08/15 01:41:52;;;;;;;5.05;4.00;;;21.80;57.40;;;20.93;63.77;95061.81;4941278;28;20106;-65
2022/08/15 01:44:46;;;;;;;5.03;3.83;;;21.80;57.40;;;20.92;63.21;95058.34;4916722;29;20063;-65
2022/08/15 01:47:26;;;;;;;3.92;3.45;;;21.70;57.50;;;20.93;63.83;95061.81;4929483;28;20517;-65
2022/08/15 01:49:53;;;;;;;6.10;3.85;;;21.80;57.60;;;20.93;63.10;95064.50;4962636;28;20039;-65
2022/08/15 01:52:20;;;;;;;5.05;3.83;;;21.70;57.40;;;20.94;63.08;95058.06;4963813;28;20066;-64
2022/08/15 01:54:46;;;;;;;4.30;3.85;;;21.80;57.40;;;20.96;63.60;95066.59;4964467;28;20039;-65
2022/08/15 01:57:12;;;;;;;5.47;4.22;;;21.80;57.70;;;20.95;63.63;95055.13;4947696;28;20134;-65
2022/08/15 01:59:38;;;;;;;8.77;3.92;;;21.80;57.40;;;20.95;62.42;95057.00;4943324;28;20064;-65
2022/08/15 02:02:07;;;;;;;5.20;3.47;;;21.80;57.10;;;20.94;62.80;95060.75;4932910;29;20118;-65
2022/08/15 02:04:39;;;;;;;5.45;4.10;;;21.80;57.30;;;20.92;63.45;95054.88;4931875;29;20423;-65
2022/08/15 02:07:12;;;;;;;6.00;3.90;;;21.70;57.40;;;20.92;63.37;95057.56;4944430;28;20804;-64
2022/08/15 02:09:41;;;;;;;5.35;3.83;;;21.70;56.70;;;20.92;62.23;95060.22;4930919;28;20058;-64
2022/08/15 02:12:08;;;;;;;5.68;3.60;;;21.70;56.70;;;20.88;62.28;95057.31;4951586;28;20130;-65
2022/08/15 02:14:35;;;;;;;7.10;4.00;;;21.70;56.80;;;20.89;63.41;95055.44;4942411;28;20064;-65
2022/08/15 02:17:02;;;;;;;6.03;3.60;;;21.70;57.30;;;20.87;63.35;95063.75;4930822;28;20383;-65
2022/08/15 02:19:28;;;;;;;6.13;3.67;;;21.70;57.10;;;20.85;62.80;95071.25;4915104;28;20042;-64
2022/08/15 02:21:54;;;;;;;5.20;3.70;;;21.70;56.30;;;20.84;62.44;95063.50;4948271;28;20035;-64
2022/08/15 02:24:22;;;;;;;5.10;3.75;;;21.60;56.20;;;20.84;62.25;95068.84;4963094;28;20061;-64
2022/08/15 02:26:50;;;;;;;5.25;3.58;;;21.60;56.50;;;20.82;62.25;95065.63;4948712;28;20094;-64
2022/08/15 02:29:16;;;;;;;4.57;3.92;;;21.60;57.00;;;20.80;62.68;95064.03;4933591;29;20028;-65
2022/08/15 02:31:42;;;;;;;4.70;3.45;;;21.60;56.50;;;20.79;62.03;95069.66;4937495;28;20059;-64
2022/08/15 02:34:08;;;;;;;6.03;4.05;;;21.60;57.00;;;20.79;62.41;95075.00;4916684;28;20110;-66
2022/08/15 02:36:35;;;;;;;5.28;3.50;;;21.60;57.20;;;20.77;62.48;95069.16;4948013;28;20086;-65
2022/08/15 02:39:02;;;;;;;5.18;3.58;;;21.60;57.20;;;20.77;63.04;95069.94;4963753;28;20439;-65
2022/08/15 02:41:32;;;;;;;10.95;4.25;;;21.60;57.30;;;20.74;63.29;95072.38;4967045;28;20024;-64
2022/08/15 02:43:59;;;;;;;5.78;4.07;;;21.50;57.10;;;20.67;62.49;95075.38;4951176;28;20038;-64
2022/08/15 02:46:29;;;;;;;6.50;3.75;;;21.50;57.30;;;20.61;63.19;95079.16;4955337;28;20031;-65
2022/08/15 02:48:58;;;;;;;4.78;3.63;;;21.30;57.60;;;20.51;62.46;95092.56;4948196;28;20026;-65
2022/08/15 02:51:24;;;;;;;5.95;3.67;;;21.10;58.10;;;20.43;62.79;95087.81;4949549;28;20094;-65
2022/08/15 02:53:51;;;;;;;4.38;3.42;;;21.10;58.40;;;20.38;63.36;95087.81;4944873;28;20043;-64
2022/08/15 02:56:19;;;;;;;6.20;3.95;;;21.10;58.50;;;20.33;63.62;95087.81;4948575;28;20384;-65
2022/08/15 02:58:45;;;;;;;6.32;3.70;;;21.10;58.70;;;20.31;64.43;95081.94;4935107;28;20047;-63
2022/08/15 03:01:12;;;;;;;4.75;3.80;;;21.10;58.80;;;20.31;64.22;95081.94;4950412;28;20491;-65
2022/08/15 03:03:40;;;;;;;4.93;3.83;;;21.10;58.90;;;20.31;64.53;95077.41;4949833;28;20094;-64
2022/08/15 03:06:08;;;;;;;5.07;3.55;;;21.10;58.90;;;20.31;64.55;95079.28;4966679;28;20507;-65
2022/08/15 03:08:35;;;;;;;7.72;4.05;;;21.10;58.90;;;20.31;64.00;95077.41;4965678;28;20593;-65
2022/08/15 03:11:04;;;;;;;7.05;3.92;;;21.10;59.10;;;20.29;64.80;95084.09;4951349;28;20122;-65
2022/08/15 03:13:31;;;;;;;5.10;3.70;;;21.10;59.30;;;20.28;64.66;95082.50;4950228;28;21866;-64
2022/08/15 03:15:57;;;;;;;8.90;3.85;;;21.10;59.30;;;20.25;64.95;95089.19;4950440;28;20046;-65
2022/08/15 03:18:24;;;;;;;4.60;3.45;;;21.10;59.50;;;20.25;64.81;95088.38;4949611;28;20035;-65
2022/08/15 03:20:51;;;;;;;4.00;3.40;;;21.10;59.50;;;20.26;64.93;95081.97;4950252;28;20097;-65
2022/08/15 03:23:20;;;;;;;5.38;3.53;;;21.10;59.50;;;20.26;65.62;95088.13;4950134;28;20031;-65
2022/08/15 03:25:50;;;;;;;7.25;3.53;;;21.10;59.50;;;20.25;65.80;95080.38;4934377;28;20122;-65
2022/08/15 03:28:18;;;;;;;3.80;3.30;;;21.10;59.60;;;20.25;66.18;95086.50;4949500;28;20034;-65
2022/08/15 03:30:44;;;;;;;5.95;3.35;;;21.10;59.70;;;20.25;65.75;95075.03;4950658;28;20287;-65
2022/08/15 03:33:09;;;;;;;5.25;3.47;;;21.10;59.70;;;20.21;65.63;95082.81;4951285;28;20054;-64
2022/08/15 03:35:46;;;;;;;5.65;3.30;;;21.00;60.00;;;20.19;65.65;95090.28;4933784;28;20105;-65
2022/08/15 03:38:12;;;;;;;5.57;3.30;;;20.90;60.10;;;20.16;66.18;95098.84;4943150;28;20041;-65
2022/08/15 03:40:40;;;;;;;7.00;3.75;;;20.90;60.30;;;20.14;65.64;95098.28;4935440;28;20074;-65
2022/08/15 03:43:12;;;;;;;4.53;3.20;;;20.90;60.40;;;20.13;66.57;95091.34;4946935;28;20488;-65
2022/08/15 03:45:39;;;;;;;7.70;3.67;;;20.90;60.30;;;20.12;66.66;95093.22;4918059;28;20118;-65
2022/08/15 03:48:06;;;;;;;7.00;3.53;;;20.90;60.30;;;20.10;66.23;95092.72;4954360;28;20150;-65
2022/08/15 03:50:32;;;;;;;5.85;3.33;;;20.90;60.50;;;20.12;65.80;95089.75;4935337;29;20530;-65
2022/08/15 03:53:04;;;;;;;6.68;3.13;;;20.90;60.20;;;20.11;66.57;95094.31;4943089;28;20441;-65
2022/08/15 03:55:31;;;;;;;6.40;3.50;;;20.90;60.30;;;20.12;66.50;95097.78;4917981;28;20043;-64
2022/08/15 03:57:57;;;;;;;5.22;3.47;;;20.90;60.10;;;20.12;65.96;95106.56;4965717;28;20035;-65
2022/08/15 04:00:30;;;;;;;7.53;3.35;;;21.00;60.10;;;20.13;67.28;95107.38;4949509;28;20078;-65
2022/08/15 04:03:17;;;;;;;5.68;3.13;;;20.90;60.10;;;20.12;66.58;95106.56;4941434;28;20066;-65
2022/08/15 04:05:49;;;;;;;4.70;2.50;;;20.90;60.00;;;20.13;65.72;95108.19;4953458;28;20035;-65
2022/08/15 04:08:16;;;;;;;7.07;3.08;;;21.00;60.00;;;20.13;66.31;95102.84;4945879;28;20567;-65
2022/08/15 04:10:42;;;;;;;5.90;3.17;;;21.00;59.80;;;20.12;65.83;95101.25;4933989;29;20086;-65
2022/08/15 04:13:08;;;;;;;6.55;3.20;;;21.00;59.70;;;20.14;66.17;95099.13;4949592;28;20035;-65
2022/08/15 04:15:34;;;;;;;4.63;2.80;;;21.00;59.80;;;20.16;65.46;95113.00;4932618;29;20141;-65
2022/08/15 04:18:00;;;;;;;5.53;2.75;;;21.00;59.60;;;20.20;65.77;95115.91;4949013;28;20039;-65
2022/08/15 04:20:28;;;;;;;7.55;2.92;;;21.10;59.50;;;20.21;65.71;95125.53;4965268;28;20035;-64
2022/08/15 04:22:53;;;;;;;5.50;3.08;;;21.10;59.40;;;20.23;66.05;95119.91;4933206;28;20035;-65
2022/08/15 04:25:21;;;;;;;3.95;3.05;;;21.10;59.40;;;20.25;65.55;95115.88;4949236;28;20066;-65
2022/08/15 04:27:49;;;;;;;4.10;2.60;;;21.20;59.10;;;20.28;65.17;95119.88;4948287;28;20051;-64
2022/08/15 04:30:15;;;;;;;4.22;2.80;;;21.20;59.20;;;20.28;65.24;95125.22;4946595;28;20102;-64
2022/08/15 04:32:40;;;;;;;5.75;2.90;;;21.10;59.00;;;20.29;64.85;95126.81;4942096;28;20158;-64
2022/08/15 04:35:08;;;;;;;3.88;2.42;;;21.10;59.00;;;20.28;65.43;95133.22;4951073;28;20042;-64
2022/08/15 04:37:36;;;;;;;5.30;2.67;;;21.10;59.00;;;20.27;65.12;95128.97;4947909;28;20145;-65
2022/08/15 04:40:04;;;;;;;7.93;3.03;;;21.10;59.30;;;20.29;65.53;95134.84;4947641;28;20032;-65
2022/08/15 04:42:29;;;;;;;4.40;2.67;;;21.10;59.00;;;20.29;65.67;95140.16;4931903;29;20046;-66
2022/08/15 04:44:55;;;;;;;7.47;2.42;;;21.10;59.20;;;20.30;65.25;95139.09;4936276;28;20039;-66
2022/08/15 04:47:21;;;;;;;4.72;2.47;;;21.10;59.10;;;20.30;65.57;95139.09;4932144;28;20039;-65
2022/08/15 04:49:47;;;;;;;5.40;2.90;;;21.10;59.10;;;20.32;65.21;95142.28;4947765;28;20464;-67
2022/08/15 04:52:19;;;;;;;3.90;2.60;;;21.20;59.20;;;20.34;65.92;95134.81;4946236;28;20110;-66
2022/08/15 04:54:45;;;;;;;5.93;2.55;;;21.20;59.20;;;20.36;65.43;95143.34;4933804;29;20035;-68
2022/08/15 04:57:12;;;;;;;8.40;3.03;;;21.30;59.30;;;20.35;66.06;95147.09;4930215;28;20092;-67
2022/08/15 04:59:39;;;;;;;6.40;3.10;;;21.10;59.50;;;20.35;65.60;95147.88;4914662;28;20081;-67
2022/08/15 05:02:08;;;;;;;4.25;2.78;;;21.20;59.60;;;20.35;66.40;95141.75;4951533;28;20035;-67
2022/08/15 05:04:34;;;;;;;4.38;2.65;;;21.20;59.60;;;20.36;66.21;95144.13;4945602;28;20889;-65
2022/08/15 05:07:00;;;;;;;3.38;2.60;;;21.20;59.70;;;20.36;65.60;95135.31;4947554;28;20178;-64
2022/08/15 05:09:26;;;;;;;3.90;2.38;;;21.20;59.70;;;20.37;66.30;95150.31;4963709;28;20050;-65
2022/08/15 05:11:51;;;;;;;6.38;2.42;;;21.30;59.60;;;20.39;65.92;95148.16;4954647;28;20230;-65
2022/08/15 05:14:18;;;;;;;4.85;2.55;;;21.30;59.60;;;20.40;66.05;95153.25;4964048;28;20036;-65
2022/08/15 05:16:43;;;;;;;4.78;2.63;;;21.30;59.50;;;20.41;66.53;95146.03;4963591;28;20118;-65
2022/08/15 05:19:09;;;;;;;4.65;2.88;;;21.40;59.60;;;20.43;65.85;95149.25;4947619;28;20061;-65
2022/08/15 05:21:35;;;;;;;5.85;2.65;;;21.40;59.60;;;20.43;66.57;95149.25;4948849;28;20522;-65
2022/08/15 05:24:01;;;;;;;3.78;2.67;;;21.40;59.50;;;20.43;66.41;95144.69;4944022;28;20036;-65
2022/08/15 05:26:26;;;;;;;5.55;2.50;;;21.40;59.50;;;20.43;66.28;95150.03;4946917;28;20038;-65
2022/08/15 05:28:52;;;;;;;4.57;2.33;;;21.40;59.40;;;20.44;66.23;95151.63;4963989;28;20035;-65
2022/08/15 05:31:18;;;;;;;2.90;2.22;;;21.40;59.30;;;20.46;66.59;95148.69;4963994;28;20122;-64
2022/08/15 05:33:45;;;;;;;4.00;2.33;;;21.40;59.40;;;20.46;66.54;95151.34;4948098;28;20035;-65
2022/08/15 05:36:11;;;;;;;4.63;2.35;;;21.50;59.60;;;20.47;66.88;95150.28;4946870;28;20058;-65
2022/08/15 05:38:46;;;;;;;4.28;2.50;;;21.40;60.10;;;20.48;67.43;95160.69;4965666;28;20083;-64
2022/08/15 05:41:40;;;;;;;3.50;2.20;;;21.50;60.10;;;20.51;67.59;95150.53;4947399;28;20117;-65
2022/08/15 05:44:43;;;;;;;4.38;2.35;;;21.50;60.20;;;20.47;67.85;95150.28;4934649;28;20043;-65
2022/08/15 05:47:27;;;;;;;3.80;2.40;;;21.40;60.50;;;20.45;68.63;95161.25;4945491;28;20046;-66
2022/08/15 05:50:20;;;;;;;5.50;2.58;;;21.40;61.30;;;20.40;69.98;95155.09;4948527;28;20043;-65
2022/08/15 05:52:57;;;;;;;4.68;2.53;;;21.20;62.20;;;20.39;69.56;95156.16;4958723;28;20048;-66
2022/08/15 05:55:44;;;;;;;4.75;2.17;;;21.30;62.20;;;20.37;70.73;95164.47;4948706;28;20039;-67
2022/08/15 05:58:36;;;;;;;5.60;2.30;;;21.30;62.70;;;20.35;71.05;95157.75;4928709;28;20035;-66
2022/08/15 06:01:11;;;;;;;6.80;2.65;;;21.30;62.90;;;20.33;70.11;95166.06;4947548;28;20032;-66
2022/08/15 06:03:37;;;;;;;3.58;2.38;;;21.20;62.70;;;20.34;70.57;95156.16;4946208;28;20039;-67
2022/08/15 06:06:09;;;;;;;5.20;2.60;;;21.30;62.90;;;20.35;71.33;95155.09;4930164;28;20027;-66
2022/08/15 06:08:36;;;;;;;3.72;2.28;;;21.40;63.30;;;20.33;70.77;95157.25;4931602;28;20115;-67
2022/08/15 06:11:17;;;;;;;5.85;2.78;;;21.20;63.40;;;20.34;72.66;95156.16;4945601;28;20070;-66
2022/08/15 06:13:55;;;;;;;4.65;2.72;;;21.30;63.60;;;20.34;72.46;95156.16;4930570;28;20035;-66
2022/08/15 06:16:42;;;;;;;7.35;2.60;;;21.30;63.50;;;20.30;72.84;95165.81;4952736;28;20525;-65
2022/08/15 06:19:26;;;;;;;4.60;2.47;;;21.20;64.10;;;20.30;73.62;95161.25;4948512;28;20039;-66
2022/08/15 06:22:31;;;;;;;5.95;2.60;;;21.30;64.90;;;20.30;75.86;95171.16;4948786;28;20114;-67
2022/08/15 06:25:19;;;;;;;5.00;2.40;;;21.30;65.90;;;20.21;75.65;95167.44;4945812;28;20039;-66
2022/08/15 06:28:41;;;;;;;3.33;2.58;;;21.10;66.70;;;20.14;78.18;95173.88;4961890;28;20470;-66
2022/08/15 06:31:50;;;;;;;4.70;2.70;;;21.10;68.00;;;20.09;78.39;95181.88;4959678;28;20424;-65
2022/08/15 06:34:49;;;;;;;6.68;2.58;;;21.00;68.60;;;20.04;79.84;95184.56;4948896;28;20407;-65
2022/08/15 06:37:25;;;;;;;6.13;2.30;;;21.10;69.30;;;20.04;80.35;95184.56;4952905;28;20150;-65
2022/08/15 06:40:12;;;;;;;3.38;2.35;;;21.20;68.70;;;20.07;80.15;95184.03;4932636;28;20045;-65
2022/08/15 06:42:43;;;;;;;5.18;2.75;;;21.30;68.90;;;20.13;81.06;95182.94;4947617;28;20035;-67
2022/08/15 06:45:26;;;;;;;4.88;2.80;;;21.50;68.90;;;20.21;82.80;95188.81;4933797;28;20414;-67
2022/08/15 06:48:08;;;;;;;4.10;2.88;;;21.50;69.20;;;20.28;83.21;95189.31;4949446;28;20043;-70
2022/08/15 06:50:39;;;;;;;3.15;2.53;;;21.60;69.60;;;20.33;81.71;95199.97;4936456;28;20095;-69
2022/08/15 06:53:33;;;;;;;3.63;2.53;;;21.50;68.60;;;20.32;81.14;95201.03;4941216;28;20042;-69
2022/08/15 06:56:29;;;;;;;3.85;2.78;;;21.40;68.20;;;20.28;81.79;95205.34;4949961;28;20051;-69
2022/08/15 06:59:02;;;;;;;5.05;3.00;;;21.30;68.50;;;20.28;81.75;95205.34;4952559;28;20043;-70
2022/08/15 07:01:52;;;;;;;3.22;2.50;;;21.40;69.10;;;20.32;82.20;95204.50;4933615;28;20036;-69
2022/08/15 07:04:25;;;;;;;3.08;2.40;;;21.40;68.80;;;20.32;80.33;95198.38;4935189;28;20024;-70
2022/08/15 07:06:59;;;;;;;4.32;2.70;;;21.40;68.70;;;20.32;80.48;95207.19;4934296;28;20066;-70
2022/08/15 07:09:52;;;;;;;3.13;2.47;;;21.40;68.30;;;20.36;81.13;95204.78;4924913;28;20487;-69
2022/08/15 07:12:52;;;;;;;3.40;2.22;;;21.40;68.20;;;20.34;81.92;95212.25;4954038;28;20035;-69
2022/08/15 07:15:48;;;;;;;5.40;2.55;;;21.40;68.80;;;20.35;81.09;95200.50;4939325;28;20037;-69
2022/08/15 07:18:37;;;;;;;4.65;2.88;;;21.40;68.10;;;20.34;81.31;95205.03;4950681;28;20032;-70
2022/08/15 07:21:16;;;;;;;3.28;2.70;;;21.40;68.50;;;20.34;80.53;95210.38;4948205;28;20023;-69
2022/08/15 07:24:08;;;;;;;6.32;2.40;;;21.30;68.10;;;20.37;79.88;95203.72;4936041;28;20432;-69
2022/08/15 07:26:54;;;;;;;3.75;2.40;;;21.40;67.80;;;20.42;81.19;95201.06;4960190;28;20111;-69
2022/08/15 07:29:39;;;;;;;3.08;2.08;;;21.50;68.00;;;20.44;79.40;95204.25;4937319;29;20094;-70
2022/08/15 07:32:18;;;;;;;3.55;2.30;;;21.50;67.10;;;20.45;79.00;95211.19;4959119;28;20063;-70
2022/08/15 07:35:15;;;;;;;3.63;1.88;;;21.60;66.90;;;20.46;79.66;95205.56;4944931;28;20036;-70
2022/08/15 07:38:01;;;;;;;4.90;2.60;;;21.60;67.00;;;20.47;78.61;95214.41;4929713;28;20094;-70
2022/08/15 07:40:40;;;;;;;6.03;2.80;;;21.60;65.60;;;20.47;78.29;95209.84;4922552;29;20179;-69
2022/08/15 07:43:32;;;;;;;5.55;2.53;;;21.60;66.00;;;20.51;78.68;95198.63;4922399;29;20510;-70
2022/08/15 07:46:21;;;;;;;3.15;2.17;;;21.80;65.80;;;20.58;79.50;95202.59;4936352;29;20039;-70
2022/08/15 07:49:00;;;;;;;2.88;2.00;;;22.00;65.80;;;20.65;77.51;95199.63;4934296;29;20045;-70
2022/08/15 07:51:39;;;;;;;2.92;2.00;;;22.10;63.80;;;20.73;76.93;95197.19;4946386;28;20086;-68
2022/08/15 07:54:22;;;;;;;4.25;1.75;;;22.20;63.00;;;20.91;76.33;95202.97;4936118;28;20388;-68
2022/08/15 07:56:58;;;;;;;2.67;1.80;;;22.60;62.70;;;21.08;75.32;95204.22;4958919;28;20031;-68
2022/08/15 07:59:33;;;;;;;3.05;1.73;;;22.90;61.60;;;21.28;72.70;95208.69;4932376;28;20043;-66
2022/08/15 08:02:24;;;;;;;2.08;1.60;;;23.10;59.00;;;21.51;72.76;95206.38;4948354;28;20042;-69
2022/08/15 08:04:50;;;;;;;3.63;1.75;;;23.50;59.20;;;21.80;73.39;95201.84;4964735;28;20257;-68
2022/08/15 08:07:19;;;;;;;4.00;1.73;;;24.10;58.20;;;22.19;72.67;95195.63;4930578;28;20173;-68
2022/08/15 08:10:09;;;;;;;2.00;1.38;;;24.80;57.70;;;22.63;69.22;95200.72;4940930;28;20047;-67
2022/08/15 08:13:05;;;;;;;2.00;1.20;;;25.10;53.90;;;23.01;66.65;95200.81;4947566;28;20039;-69
2022/08/15 08:16:01;;;;;;;1.70;1.60;;;25.60;51.90;;;23.40;64.63;95201.34;4948900;28;20035;-70
2022/08/15 08:18:43;;;;;;;3.65;1.30;;;25.90;51.40;;;23.69;63.21;95203.06;4929227;28;20031;-70
2022/08/15 08:21:15;;;;;;;4.85;1.90;;;26.10;50.30;;;23.87;63.47;95217.56;4930057;28;20043;-69
2022/08/15 08:23:46;;;;;;;3.22;2.00;;;26.10;50.90;;;24.05;62.70;95214.03;4959042;28;20454;-69
2022/08/15 08:26:24;;;;;;;2.70;1.80;;;26.10;50.50;;;24.14;61.61;95206.88;4947595;28;20526;-69
2022/08/15 08:29:23;;;;;;;2.13;1.63;;;26.00;50.70;;;24.23;59.74;95205.09;4946466;28;20501;-71
2022/08/15 08:32:06;;;;;;;2.95;1.48;;;26.10;49.70;;;24.35;59.42;95200.06;4945427;28;20130;-71
2022/08/15 08:34:54;;;;;;;2.95;1.60;;;26.20;49.40;;;24.48;59.07;95203.06;4940858;28;20086;-70
2022/08/15 08:38:18;;;;;;;3.47;1.50;;;26.50;48.80;;;24.78;59.13;95201.66;4944925;28;20031;-66
2022/08/15 08:41:26;;;;;;;3.83;1.50;;;27.20;48.20;;;25.00;59.16;95202.53;4930055;28;20035;-66
2022/08/15 08:44:19;;;;;;;2.88;1.65;;;27.30;48.10;;;25.24;58.47;95196.91;4933063;28;20035;-67
2022/08/15 08:47:34;;;;;;;2.00;1.50;;;27.60;47.80;;;25.41;57.53;95198.94;4945100;28;20035;-66
2022/08/15 08:50:22;;;;;;;2.60;1.90;;;27.60;47.80;;;25.49;57.20;95203.59;4945910;28;20170;-69
2022/08/15 08:53:03;;;;;;;3.78;1.73;;;27.60;47.30;;;25.62;55.91;95201.97;4961980;28;20046;-69
2022/08/15 08:55:57;;;;;;;3.85;2.17;;;27.60;46.30;;;25.77;55.76;95203.50;4962890;28;20074;-67
2022/08/15 08:58:42;;;;;;;3.17;1.52;;;27.90;46.40;;;25.85;54.21;95208.97;4959137;28;20036;-66
2022/08/15 09:01:09;;;;;;;2.78;1.33;;;27.70;45.90;;;25.89;55.57;95201.84;4930195;28;20035;-71
2022/08/15 09:03:48;;;;;;;2.00;1.38;;;27.80;46.00;;;25.92;54.18;95200.44;4947753;28;20040;-67
2022/08/15 09:06:27;;;;;;;2.20;1.60;;;27.60;46.40;;;25.90;54.81;95205.34;4947826;28;20161;-67
2022/08/15 09:09:11;;;;;;;2.28;1.40;;;27.50;46.30;;;25.86;54.35;95207.06;4915245;29;20038;-70
2022/08/15 09:11:49;;;;;;;3.63;1.50;;;27.30;47.00;;;25.72;53.47;95207.13;4928054;28;20047;-69
2022/08/15 09:14:24;;;;;;;2.53;1.50;;;27.00;47.10;;;25.54;53.43;95206.16;4929905;28;20093;-69
2022/08/15 09:16:51;;;;;;;2.42;1.50;;;26.70;47.00;;;25.47;53.54;95216.56;4955693;28;20043;-70
2022/08/15 09:19:32;;;;;;;2.20;1.50;;;26.60;46.70;;;25.36;53.23;95217.91;4946482;28;20038;-69
2022/08/15 09:21:58;;;;;;;1.67;1.20;;;26.50;47.30;;;25.27;53.62;95227.78;4933876;28;20380;-68
2022/08/15 09:24:23;;;;;;;2.35;1.40;;;26.50;46.80;;;25.11;53.26;95224.63;4953226;28;20091;-68
2022/08/15 09:26:58;;;;;;;3.75;1.70;;;26.10;47.30;;;25.00;53.19;95226.75;4947863;28;20047;-68
2022/08/15 09:29:46;;;;;;;2.70;1.52;;;26.10;47.50;;;24.91;53.26;95225.84;4967769;28;20066;-68
2022/08/15 09:32:27;;;;;;;3.78;1.50;;;26.10;47.80;;;24.80;53.83;95219.06;4922030;29;20034;-69
2022/08/15 09:35:26;;;;;;;3.38;1.67;;;25.80;48.40;;;24.71;54.20;95215.50;4950957;28;20519;-68
2022/08/15 09:38:15;;;;;;;2.60;1.50;;;25.80;48.60;;;24.67;55.11;95214.50;4931670;29;20035;-68
2022/08/15 09:41:12;;;;;;;4.63;2.20;;;25.80;49.00;;;24.67;55.29;95219.91;4943873;28;20521;-68
2022/08/15 09:43:55;;;;;;;3.15;2.30;;;26.00;49.30;;;24.69;55.65;95212.31;4952786;28;20090;-67
2022/08/15 09:46:49;;;;;;;2.17;1.70;;;26.20;49.50;;;24.73;55.19;95218.69;4962384;28;20039;-69
2022/08/15 09:49:40;;;;;;;2.42;1.60;;;26.20;48.60;;;24.78;55.05;95210.50;4966766;28;20035;-70
2022/08/15 09:52:24;;;;;;;2.67;1.60;;;26.40;48.30;;;24.87;55.03;95214.06;4953594;28;20451;-71
2022/08/15 09:54:56;;;;;;;4.28;1.52;;;26.50;48.20;;;24.97;54.81;95208.50;4961775;28;20038;-70
2022/08/15 09:57:28;;;;;;;1.95;1.50;;;26.80;47.10;;;25.16;54.49;95210.28;4970293;28;20054;-70
2022/08/15 09:59:59;;;;;;;2.45;1.50;;;27.20;46.80;;;25.39;54.26;95211.94;4952980;28;20039;-69
2022/08/15 10:02:27;;;;;;;3.75;1.75;;;27.60;45.90;;;25.59;54.08;95211.47;4922387;29;20061;-70
2022/08/15 10:04:56;;;;;;;1.83;1.38;;;27.90;45.00;;;25.84;53.20;95202.00;4942337;28;20125;-70
2022/08/15 10:07:59;;;;;;;3.53;1.55;;;28.10;44.40;;;26.27;52.78;95214.13;4975019;28;20391;-73
2022/08/15 10:10:36;;;;;;;3.60;1.48;;;29.40;43.20;;;26.66;51.69;95207.94;4950771;28;20503;-70
2022/08/15 10:13:08;;;;;;;4.53;2.92;;;29.70;41.60;;;26.99;51.31;95205.69;4952914;28;20377;-72
2022/08/15 10:15:39;;;;;;;2.40;1.90;;;30.10;41.70;;;27.44;51.80;95207.03;4969010;28;20066;-71
2022/08/15 10:18:08;;;;;;;4.25;1.70;;;31.20;39.60;;;27.69;49.22;95201.97;4968486;28;20131;-70
2022/08/15 10:20:33;;;;;;;9.70;4.78;;;30.50;37.50;;;27.85;48.16;95200.38;4967108;28;20082;-71
2022/08/15 10:22:59;;;;;;;3.40;2.10;;;30.60;38.50;;;27.99;48.31;95200.97;4967022;28;20039;-68
2022/08/15 10:25:30;;;;;;;3.88;1.92;;;30.40;38.90;;;28.08;47.75;95197.47;4955352;28;20146;-67
2022/08/15 10:28:12;;;;;;;3.67;1.60;;;30.40;38.80;;;28.18;45.94;95197.09;4965873;28;20043;-67
2022/08/15 10:30:46;;;;;;;1.63;1.30;;;30.40;39.10;;;28.21;45.75;95193.75;4966080;28;20443;-67
2022/08/15 10:33:32;;;;;;;1.95;1.38;;;30.30;38.90;;;28.25;44.96;95190.09;4948645;28;20039;-67
2022/08/15 10:36:16;;;;;;;2.95;1.50;;;30.30;38.40;;;28.24;44.53;95182.28;4967395;28;20043;-67
2022/08/15 10:39:07;;;;;;;2.55;1.40;;;30.40;38.40;;;28.40;45.98;95183.38;4952436;28;20058;-67
2022/08/15 10:42:21;;;;;;;2.33;1.30;;;30.60;39.40;;;28.50;43.90;95179.50;4952181;28;20034;-68
2022/08/15 10:45:29;;;;;;;2.30;1.40;;;30.70;37.80;;;29.05;43.66;95174.00;4960086;28;20059;-67
2022/08/15 10:48:38;;;;;;;2.42;1.40;;;32.80;34.70;;;29.91;42.22;95169.00;4963324;28;20415;-67
2022/08/15 10:51:29;;;;;;;1.90;1.23;;;34.70;32.50;;;30.59;41.61;95161.25;4953013;28;20359;-66
2022/08/15 10:54:11;;;;;;;2.88;1.35;;;34.80;31.50;;;30.90;39.57;95166.91;4946894;28;20070;-65
2022/08/15 10:56:38;;;;;;;2.70;1.45;;;34.00;32.30;;;30.92;41.51;95156.50;4950144;28;20035;-65
2022/08/15 10:59:09;;;;;;;1.90;1.27;;;33.50;33.50;;;30.86;39.94;95165.22;4965246;28;20064;-64